Terminal Aerodrome Forecast
Issued by NWS

Home | Current Version | Previous Version | Text Only | Print | Product List | Glossary On
Versions: 1 2 3 4 5 6 7 8 9 10 11 12 13 14 15 16 17
000
FTUS43 KIND 250520
TAFHUF
TAF
KHUF 250520Z 2506/2606 22012KT P6SM BKN250
     FM251100 29006KT P6SM FEW250
     FM251500 32009KT P6SM SKC
     FM260000 31005KT P6SM SKC=

USA.gov is the U.S. government's official web portal to all federal, state and local government web resources and services.